Time;durP1;ratioP1;P1;durP2;ratioP2;P2;SDS_P1;SDS_P2;PMS_P1;PMS_P2;Temp;Humidity;BMP_temperature;BMP_pressure;BME280_temperature;BME280_humidity;BME280_pressure;Samples;Min_cycle;Max_cycle;Signal;HPM_P1;HPM_P2
2023/04/24 00:00:14;;;;;;;;;;;8.00;99.90;;;;;;5052431;28;19913;-71
2023/04/24 00:02:40;;;;;;;;;;;8.20;99.90;;;;;;5052466;28;19995;-71
2023/04/24 00:05:06;;;;;;;;;;;8.20;99.90;;;;;;5050316;28;19983;-71
2023/04/24 00:07:32;;;;;;;;;;;8.30;99.90;;;;;;5053463;28;20384;-71
2023/04/24 00:09:58;;;;;;;;;;;8.30;99.90;;;;;;5057826;28;19955;-71
2023/04/24 00:12:23;;;;;;;;;;;8.40;99.90;;;;;;5051494;28;20307;-71
2023/04/24 00:14:49;;;;;;;;;;;8.50;99.90;;;;;;5058408;28;19913;-71
2023/04/24 00:17:14;;;;;;;;;;;8.50;99.90;;;;;;5052055;28;20018;-71
2023/04/24 00:19:40;;;;;;;;;;;8.60;99.90;;;;;;5059886;28;20439;-71
2023/04/24 00:22:05;;;;;;;;;;;8.50;99.90;;;;;;5054604;28;19915;-71
2023/04/24 00:24:31;;;;;;;;;;;8.50;99.90;;;;;;5051653;28;20198;-71
2023/04/24 00:26:56;;;;;;;;;;;8.60;99.90;;;;;;5057966;28;19958;-71
2023/04/24 00:29:22;;;;;;;;;;;8.60;99.90;;;;;;5054283;28;19913;-71
2023/04/24 00:31:47;;;;;;;;;;;8.40;99.90;;;;;;5061769;28;20353;-71
2023/04/24 00:34:13;;;;;;;;;;;8.40;99.90;;;;;;5050232;28;19912;-71
2023/04/24 00:36:38;;;;;;;;;;;8.60;99.90;;;;;;5057725;28;19909;-71
2023/04/24 00:39:04;;;;;;;;;;;8.60;99.90;;;;;;5055595;28;19915;-71
2023/04/24 00:41:29;;;;;;;;;;;8.70;99.90;;;;;;5051602;28;19909;-71
2023/04/24 00:43:55;;;;;;;;;;;8.70;99.90;;;;;;5049767;28;19919;-71
2023/04/24 00:46:21;;;;;;;;;;;8.80;99.90;;;;;;5061556;28;20362;-71
2023/04/24 00:48:46;;;;;;;;;;;8.80;99.90;;;;;;5051844;28;19908;-71
2023/04/24 00:51:12;;;;;;;;;;;8.90;99.90;;;;;;5055606;28;20026;-71
2023/04/24 00:53:37;;;;;;;;;;;8.90;99.90;;;;;;5058146;28;19909;-71
2023/04/24 00:56:04;;;;;;;;;;;9.10;99.90;;;;;;5056287;28;19962;-71
2023/04/24 00:58:31;;;;;;;;;;;9.20;99.90;;;;;;5051553;28;19959;-71
2023/04/24 01:00:57;;;;;;;;;;;9.10;99.90;;;;;;5059956;28;19908;-71
2023/04/24 01:03:25;;;;;;;;;;;9.00;99.90;;;;;;5051694;28;19917;-71
2023/04/24 01:05:51;;;;;;;;;;;9.10;99.90;;;;;;5053337;28;20003;-71
2023/04/24 01:08:17;;;;;;;;;;;9.20;99.90;;;;;;5051036;28;19952;-72
2023/04/24 01:10:43;;;;;;;;;;;9.00;99.90;;;;;;5056286;28;20418;-72
2023/04/24 01:13:09;;;;;;;;;;;9.10;99.90;;;;;;5050857;28;20007;-72
2023/04/24 01:15:34;;;;;;;;;;;9.30;99.90;;;;;;5050563;28;20011;-72
2023/04/24 01:18:00;;;;;;;;;;;9.00;99.90;;;;;;5055247;28;19951;-72
2023/04/24 01:20:26;;;;;;;;;;;9.10;99.90;;;;;;5050814;28;19909;-72
2023/04/24 01:22:52;;;;;;;;;;;8.90;99.90;;;;;;5051057;28;19916;-72
2023/04/24 01:25:18;;;;;;;;;;;8.80;99.90;;;;;;5050349;28;19916;-72
2023/04/24 01:27:43;;;;;;;;;;;8.80;99.90;;;;;;5051001;28;19909;-72
2023/04/24 01:30:09;;;;;;;;;;;8.70;99.90;;;;;;5054149;28;20054;-72
2023/04/24 01:32:35;;;;;;;;;;;8.80;99.90;;;;;;5050304;28;19958;-72
2023/04/24 01:35:01;;;;;;;;;;;8.80;99.90;;;;;;5050249;28;19982;-72
2023/04/24 01:37:26;;;;;;;;;;;8.60;99.90;;;;;;5051705;28;19909;-72
2023/04/24 01:39:52;;;;;;;;;;;8.80;99.90;;;;;;5056456;28;19958;-72
2023/04/24 01:42:17;;;;;;;;;;;8.70;99.90;;;;;;5053440;28;19912;-72
2023/04/24 01:44:43;;;;;;;;;;;8.80;99.90;;;;;;5055358;28;19908;-72
2023/04/24 01:47:09;;;;;;;;;;;8.90;99.90;;;;;;5053051;28;19935;-72
2023/04/24 01:49:34;;;;;;;;;;;8.90;99.90;;;;;;5056659;28;19963;-72
2023/04/24 01:52:00;;;;;;;;;;;9.00;99.90;;;;;;5050647;28;19999;-72
2023/04/24 01:54:25;;;;;;;;;;;9.10;99.90;;;;;;5049599;28;19912;-72
2023/04/24 01:56:53;;;;;;;;;;;8.90;99.90;;;;;;5055154;28;20413;-72
2023/04/24 01:59:20;;;;;;;;;;;8.90;99.90;;;;;;5050376;28;19952;-72
2023/04/24 02:01:45;;;;;;;;;;;8.90;99.90;;;;;;5049285;28;19913;-72
2023/04/24 02:04:11;;;;;;;;;;;8.90;99.90;;;;;;5050896;28;20301;-73
2023/04/24 02:06:37;;;;;;;;;;;8.80;99.90;;;;;;5050182;28;20246;-72
2023/04/24 02:09:03;;;;;;;;;;;8.70;99.90;;;;;;5055027;28;19912;-72
2023/04/24 02:11:28;;;;;;;;;;;8.60;99.90;;;;;;5050320;28;19909;-72
2023/04/24 02:13:54;;;;;;;;;;;8.60;99.90;;;;;;5058181;28;19915;-72
2023/04/24 02:16:20;;;;;;;;;;;8.40;99.90;;;;;;5052225;28;19916;-72
2023/04/24 02:18:46;;;;;;;;;;;8.40;99.90;;;;;;5059155;28;19920;-72
2023/04/24 02:21:11;;;;;;;;;;;8.30;99.90;;;;;;5054367;28;19913;-72
2023/04/24 02:23:37;;;;;;;;;;;8.30;99.90;;;;;;5052607;28;19908;-72
2023/04/24 02:26:02;;;;;;;;;;;8.30;99.90;;;;;;5050575;28;19913;-72
2023/04/24 02:28:28;;;;;;;;;;;8.40;99.90;;;;;;5056352;28;19916;-72
2023/04/24 02:30:53;;;;;;;;;;;8.50;99.90;;;;;;5050217;28;19909;-72
2023/04/24 02:33:19;;;;;;;;;;;8.60;99.90;;;;;;5049863;28;20003;-72
2023/04/24 02:35:45;;;;;;;;;;;8.50;99.90;;;;;;5055367;28;19966;-72
2023/04/24 02:38:10;;;;;;;;;;;8.40;99.90;;;;;;5049653;28;20001;-72
2023/04/24 02:40:36;;;;;;;;;;;8.60;99.90;;;;;;5048805;28;20350;-72
2023/04/24 02:43:01;;;;;;;;;;;8.50;99.90;;;;;;5052618;28;19954;-72
2023/04/24 02:45:27;;;;;;;;;;;8.50;99.90;;;;;;5057388;28;19909;-72
2023/04/24 02:47:52;;;;;;;;;;;8.50;99.90;;;;;;5050097;28;19913;-72
2023/04/24 02:50:17;;;;;;;;;;;8.50;99.90;;;;;;5050720;28;19915;-72
2023/04/24 02:52:43;;;;;;;;;;;8.60;99.90;;;;;;5050029;28;20365;-72
2023/04/24 02:55:09;;;;;;;;;;;8.70;99.90;;;;;;5050978;28;19921;-72
2023/04/24 02:57:34;;;;;;;;;;;8.70;99.90;;;;;;5036491;28;19913;-72
2023/04/24 03:00:00;;;;;;;;;;;8.70;99.90;;;;;;5037769;28;19916;-72
2023/04/24 03:02:25;;;;;;;;;;;8.70;99.90;;;;;;5041676;28;19909;-72
2023/04/24 03:04:51;;;;;;;;;;;8.70;99.90;;;;;;5037581;28;19917;-72
2023/04/24 03:07:16;;;;;;;;;;;8.70;99.90;;;;;;5038717;28;19940;-72
2023/04/24 03:09:42;;;;;;;;;;;8.70;99.90;;;;;;5033786;28;20343;-72
2023/04/24 03:12:07;;;;;;;;;;;8.50;99.90;;;;;;5037974;28;19916;-72
2023/04/24 03:14:33;;;;;;;;;;;8.70;99.90;;;;;;5034909;28;19913;-72
2023/04/24 03:16:58;;;;;;;;;;;8.60;99.90;;;;;;5038622;28;19916;-72
2023/04/24 03:19:24;;;;;;;;;;;8.40;99.90;;;;;;5039477;28;19915;-72
2023/04/24 03:21:49;;;;;;;;;;;8.50;99.90;;;;;;5040159;28;19929;-72
2023/04/24 03:24:15;;;;;;;;;;;8.50;99.90;;;;;;5034274;28;20004;-72
2023/04/24 03:26:40;;;;;;;;;;;8.50;99.90;;;;;;5038462;28;20356;-72
2023/04/24 03:29:06;;;;;;;;;;;8.50;99.90;;;;;;5036065;28;19928;-72
2023/04/24 03:31:31;;;;;;;;;;;8.40;99.90;;;;;;5041346;28;19908;-72
2023/04/24 03:33:57;;;;;;;;;;;8.30;99.90;;;;;;5033940;28;19909;-72
2023/04/24 03:36:22;;;;;;;;;;;8.20;99.90;;;;;;5036422;28;19950;-72
2023/04/24 03:38:48;;;;;;;;;;;8.00;99.90;;;;;;5037775;28;19913;-72
2023/04/24 03:41:13;;;;;;;;;;;8.00;99.90;;;;;;5037570;28;19909;-72
2023/04/24 03:43:39;;;;;;;;;;;7.90;99.90;;;;;;5050165;28;19987;-72
2023/04/24 03:46:04;;;;;;;;;;;7.80;99.90;;;;;;5060471;28;19908;-71
2023/04/24 03:48:30;;;;;;;;;;;7.80;99.90;;;;;;5051575;28;19908;-72
2023/04/24 03:50:55;;;;;;;;;;;7.80;99.90;;;;;;5050568;28;19909;-71
2023/04/24 03:53:21;;;;;;;;;;;7.80;99.90;;;;;;5046112;28;20559;-72
2023/04/24 03:55:47;;;;;;;;;;;7.70;99.90;;;;;;5049027;28;19938;-72
2023/04/24 03:58:14;;;;;;;;;;;7.50;99.90;;;;;;5045699;28;19912;-72
2023/04/24 04:00:40;;;;;;;;;;;7.40;99.90;;;;;;5048320;28;19917;-72
2023/04/24 04:03:05;;;;;;;;;;;7.30;99.90;;;;;;5045113;28;19909;-71
2023/04/24 04:05:31;;;;;;;;;;;7.40;99.90;;;;;;5051377;28;19967;-72
2023/04/24 04:07:56;;;;;;;;;;;7.60;99.90;;;;;;5042986;28;19999;-71
2023/04/24 04:10:22;;;;;;;;;;;7.80;99.90;;;;;;5050409;28;20324;-72
2023/04/24 04:12:47;;;;;;;;;;;7.90;99.90;;;;;;5048607;28;19909;-72
2023/04/24 04:15:13;;;;;;;;;;;8.10;99.90;;;;;;5058100;28;19921;-72
2023/04/24 04:17:38;;;;;;;;;;;8.10;99.90;;;;;;5052042;28;19999;-72
2023/04/24 04:20:09;;;;;;;;;;;8.20;99.90;;;;;;5060410;28;19940;-72
2023/04/24 04:22:34;;;;;;;;;;;8.30;99.90;;;;;;5051642;28;19913;-72
2023/04/24 04:25:00;;;;;;;;;;;8.30;99.90;;;;;;5050308;28;19969;-72
2023/04/24 04:27:26;;;;;;;;;;;8.40;99.90;;;;;;5046787;28;19917;-72
2023/04/24 04:29:52;;;;;;;;;;;8.40;99.90;;;;;;5048671;28;19909;-71
2023/04/24 04:32:17;;;;;;;;;;;8.40;99.90;;;;;;5046528;28;19913;-71
2023/04/24 04:34:45;;;;;;;;;;;8.50;99.90;;;;;;5047446;28;19971;-71
2023/04/24 04:37:12;;;;;;;;;;;8.50;99.90;;;;;;5043538;28;19913;-72
2023/04/24 04:39:37;;;;;;;;;;;8.50;99.90;;;;;;5051864;28;19915;-71
2023/04/24 04:42:03;;;;;;;;;;;8.50;99.90;;;;;;5053273;28;19913;-72
2023/04/24 04:44:30;;;;;;;;;;;8.20;99.90;;;;;;5051188;28;19916;-73
2023/04/24 04:46:56;;;;;;;;;;;7.50;99.90;;;;;;5052037;28;20438;-72
2023/04/24 04:49:23;;;;;;;;;;;7.30;99.90;;;;;;5057937;28;19917;-72
2023/04/24 04:51:49;;;;;;;;;;;7.20;99.90;;;;;;5051589;28;19954;-72
2023/04/24 04:54:15;;;;;;;;;;;7.10;99.90;;;;;;5051034;28;20315;-72
2023/04/24 04:56:41;;;;;;;;;;;7.20;99.90;;;;;;5056379;28;19934;-71
2023/04/24 04:59:06;;;;;;;;;;;7.10;99.90;;;;;;5051321;28;20396;-71
2023/04/24 05:01:32;;;;;;;;;;;7.00;99.90;;;;;;5051518;28;19919;-72
2023/04/24 05:03:57;;;;;;;;;;;7.00;99.90;;;;;;5050817;28;19917;-72
2023/04/24 05:06:22;;;;;;;;;;;7.00;99.90;;;;;;5057603;28;19916;-72
2023/04/24 05:08:48;;;;;;;;;;;7.00;99.90;;;;;;5051241;28;19909;-72
2023/04/24 05:11:14;;;;;;;;;;;7.00;99.90;;;;;;5051011;28;19915;-72
2023/04/24 05:13:40;;;;;;;;;;;7.10;99.90;;;;;;5050785;28;20285;-71
2023/04/24 05:16:05;;;;;;;;;;;7.00;99.90;;;;;;5051608;28;19913;-71
2023/04/24 05:18:31;;;;;;;;;;;7.10;99.90;;;;;;5053650;28;19962;-71
2023/04/24 05:20:56;;;;;;;;;;;7.10;99.90;;;;;;5056426;28;20391;-71
2023/04/24 05:23:22;;;;;;;;;;;7.30;99.90;;;;;;5050325;28;19921;-71
2023/04/24 05:25:47;;;;;;;;;;;7.30;99.90;;;;;;5050698;28;19909;-71
2023/04/24 05:28:13;;;;;;;;;;;7.40;99.90;;;;;;5050266;28;19952;-72
2023/04/24 05:30:38;;;;;;;;;;;7.30;99.90;;;;;;5050961;28;19920;-71
2023/04/24 05:33:04;;;;;;;;;;;7.30;99.90;;;;;;5050660;28;19983;-72
2023/04/24 05:35:29;;;;;;;;;;;7.50;99.90;;;;;;5055924;28;19913;-72
2023/04/24 05:37:55;;;;;;;;;;;7.60;99.90;;;;;;5051119;28;19921;-72
2023/04/24 05:40:20;;;;;;;;;;;7.70;99.90;;;;;;5057274;28;20545;-72
2023/04/24 05:42:46;;;;;;;;;;;7.70;99.90;;;;;;5053004;28;19912;-72
2023/04/24 05:45:16;;;;;;;;;;;7.60;99.90;;;;;;5052281;28;19963;-72
2023/04/24 05:47:42;;;;;;;;;;;7.60;99.90;;;;;;5050713;28;19999;-71
2023/04/24 05:50:08;;;;;;;;;;;7.70;99.90;;;;;;5049724;28;19920;-72
2023/04/24 05:52:33;;;;;;;;;;;7.70;99.90;;;;;;5052122;28;19908;-71
2023/04/24 05:54:59;;;;;;;;;;;7.70;99.90;;;;;;5050265;28;19981;-72
2023/04/24 05:57:24;;;;;;;;;;;7.80;99.90;;;;;;5046807;28;20521;-72
2023/04/24 05:59:50;;;;;;;;;;;7.80;99.90;;;;;;5053109;28;19909;-72
2023/04/24 06:02:16;;;;;;;;;;;8.00;99.90;;;;;;5050692;28;20007;-72
2023/04/24 06:04:41;;;;;;;;;;;7.90;99.90;;;;;;5052609;28;19924;-72
2023/04/24 06:07:07;;;;;;;;;;;7.80;99.90;;;;;;5049773;28;19912;-72
2023/04/24 06:09:32;;;;;;;;;;;7.50;99.90;;;;;;5052723;28;19960;-72
2023/04/24 06:11:59;;;;;;;;;;;7.50;99.90;;;;;;5057711;28;19982;-72
2023/04/24 06:14:25;;;;;;;;;;;7.50;99.90;;;;;;5055063;28;19913;-72
2023/04/24 06:16:50;;;;;;;;;;;7.90;99.90;;;;;;5052605;28;19916;-72
2023/04/24 06:19:16;;;;;;;;;;;7.60;99.90;;;;;;5051408;28;19913;-73
2023/04/24 06:21:41;;;;;;;;;;;7.90;99.90;;;;;;5049877;28;19913;-72
2023/04/24 06:24:07;;;;;;;;;;;8.30;99.90;;;;;;5052248;28;19909;-72
2023/04/24 06:26:32;;;;;;;;;;;8.70;99.90;;;;;;5051336;28;20009;-72
2023/04/24 06:28:59;;;;;;;;;;;9.30;99.90;;;;;;5054206;28;19916;-72
2023/04/24 06:31:24;;;;;;;;;;;9.50;99.90;;;;;;5048413;28;19916;-72
2023/04/24 06:33:50;;;;;;;;;;;9.80;99.90;;;;;;5051888;28;19915;-72
2023/04/24 06:36:16;;;;;;;;;;;10.30;99.90;;;;;;5053633;28;19909;-72
2023/04/24 06:38:41;;;;;;;;;;;10.10;99.90;;;;;;5057755;28;19908;-72
2023/04/24 06:41:07;;;;;;;;;;;10.50;99.90;;;;;;5055555;28;19955;-72
2023/04/24 06:43:33;;;;;;;;;;;10.90;99.90;;;;;;5052060;28;20300;-72
2023/04/24 06:45:59;;;;;;;;;;;10.90;99.90;;;;;;5054432;28;19909;-72
2023/04/24 06:48:25;;;;;;;;;;;11.00;99.90;;;;;;5053929;28;19909;-72
2023/04/24 06:50:51;;;;;;;;;;;11.10;99.90;;;;;;5054046;28;19908;-72
2023/04/24 06:53:16;;;;;;;;;;;10.50;99.90;;;;;;5053800;28;19944;-72
2023/04/24 06:55:43;;;;;;;;;;;10.40;99.90;;;;;;5053773;28;20012;-72
2023/04/24 06:58:08;;;;;;;;;;;10.30;99.90;;;;;;5061942;28;19909;-72
2023/04/24 07:00:34;;;;;;;;;;;9.90;99.90;;;;;;5053642;28;19913;-72
2023/04/24 07:03:00;;;;;;;;;;;9.70;99.90;;;;;;5054746;28;19931;-72
2023/04/24 07:05:25;;;;;;;;;;;9.60;99.90;;;;;;5053235;28;20004;-72
2023/04/24 07:07:51;;;;;;;;;;;9.60;99.90;;;;;;5051907;28;19952;-72
2023/04/24 07:10:16;;;;;;;;;;;10.40;99.90;;;;;;5053302;28;20420;-72
2023/04/24 07:12:42;;;;;;;;;;;9.50;99.90;;;;;;5053918;28;19913;-71
2023/04/24 07:15:08;;;;;;;;;;;9.30;99.90;;;;;;5053188;28;20292;-72
2023/04/24 07:17:34;;;;;;;;;;;8.60;99.90;;;;;;5053399;28;19996;-72
2023/04/24 07:20:00;;;;;;;;;;;7.20;99.90;;;;;;5055551;28;20284;-72
2023/04/24 07:22:25;;;;;;;;;;;7.20;99.90;;;;;;5053768;28;19987;-72
2023/04/24 07:24:51;;;;;;;;;;;7.60;99.90;;;;;;5053103;28;19908;-72
2023/04/24 07:27:16;;;;;;;;;;;8.90;99.90;;;;;;5053723;28;19948;-72
2023/04/24 07:29:42;;;;;;;;;;;9.10;99.90;;;;;;5053562;28;20397;-72
2023/04/24 07:32:08;;;;;;;;;;;10.40;99.90;;;;;;5053194;28;19916;-72
2023/04/24 07:34:34;;;;;;;;;;;10.90;99.90;;;;;;5052955;28;20424;-72
2023/04/24 07:37:00;;;;;;;;;;;11.50;99.90;;;;;;5050862;28;19980;-72
2023/04/24 07:39:26;;;;;;;;;;;11.60;99.90;;;;;;5053005;28;19947;-73
2023/04/24 07:41:51;;;;;;;;;;;11.10;99.90;;;;;;5052612;28;19995;-73
2023/04/24 07:44:17;;;;;;;;;;;11.70;99.90;;;;;;5053701;28;20377;-72
2023/04/24 07:46:42;;;;;;;;;;;10.20;99.90;;;;;;5059313;28;19913;-72
2023/04/24 07:49:08;;;;;;;;;;;9.80;99.90;;;;;;5053159;28;20503;-72
2023/04/24 07:51:37;;;;;;;;;;;10.00;99.90;;;;;;5053628;28;20459;-72
2023/04/24 07:54:05;;;;;;;;;;;10.30;99.90;;;;;;5052471;28;20369;-72
2023/04/24 07:56:31;;;;;;;;;;;10.80;99.90;;;;;;5053021;28;20432;-72
2023/04/24 07:58:56;;;;;;;;;;;11.40;99.90;;;;;;5053024;28;19959;-72
2023/04/24 08:01:22;;;;;;;;;;;11.50;99.90;;;;;;5051299;28;19920;-71
